createdAt,value
2022-11-16T00:00:29.321Z,43.50
2022-11-16T00:02:56.101Z,44.47
2022-11-16T00:05:27.144Z,47.30
2022-11-16T00:07:55.182Z,41.80
2022-11-16T00:10:21.888Z,46.27
2022-11-16T00:12:48.559Z,45.27
2022-11-16T00:15:15.317Z,44.50
2022-11-16T00:17:42.019Z,45.43
2022-11-16T00:20:09.386Z,49.50
2022-11-16T00:22:36.072Z,46.10
2022-11-16T00:25:02.757Z,44.63
2022-11-16T00:27:29.494Z,46.87
2022-11-16T00:29:56.308Z,43.97
2022-11-16T00:32:23.593Z,47.63
2022-11-16T00:34:50.355Z,50.37
2022-11-16T00:37:17.022Z,48.77
2022-11-16T00:39:43.701Z,51.03
2022-11-16T00:42:10.411Z,48.90
2022-11-16T00:44:37.230Z,49.47
2022-11-16T00:47:03.974Z,51.10
2022-11-16T00:49:30.711Z,49.60
2022-11-16T00:51:57.399Z,57.17
2022-11-16T00:54:24.149Z,56.43
2022-11-16T00:56:50.870Z,50.40
2022-11-16T00:59:17.607Z,50.30
2022-11-16T01:01:44.459Z,51.63
2022-11-16T01:04:11.250Z,54.63
2022-11-16T01:06:37.958Z,57.30
2022-11-16T01:09:04.667Z,54.27
2022-11-16T01:11:49.900Z,53.70
2022-11-16T01:14:16.684Z,53.13
2022-11-16T01:16:43.392Z,51.50
2022-11-16T01:19:10.453Z,55.17
2022-11-16T01:21:37.245Z,53.20
2022-11-16T01:24:04.054Z,53.77
2022-11-16T01:26:30.842Z,57.93
2022-11-16T01:28:59.033Z,55.17
2022-11-16T01:31:25.751Z,58.10
2022-11-16T01:33:52.430Z,58.77
2022-11-16T01:36:19.164Z,62.33
2022-11-16T01:38:47.100Z,56.20
2022-11-16T01:41:24.937Z,54.07
2022-11-16T01:43:57.393Z,53.17
2022-11-16T01:46:25.352Z,51.10
2022-11-16T01:48:59.205Z,56.50
2022-11-16T01:51:27.067Z,56.43
2022-11-16T01:53:54.076Z,56.93
2022-11-16T01:56:21.842Z,58.63
2022-11-16T01:58:49.591Z,56.97
2022-11-16T02:01:16.324Z,56.10
2022-11-16T02:03:43.109Z,45.00
2022-11-16T02:06:12.601Z,50.63
2022-11-16T02:09:09.949Z,47.73
2022-11-16T02:11:58.437Z,54.47
2022-11-16T02:14:49.352Z,50.30
2022-11-16T02:17:26.147Z,47.67
2022-11-16T02:20:30.221Z,48.27
2022-11-16T02:23:15.518Z,50.93
2022-11-16T02:26:03.596Z,48.80
2022-11-16T02:29:01.123Z,56.40
2022-11-16T02:31:38.207Z,57.10
2022-11-16T02:34:09.831Z,49.87
2022-11-16T02:36:40.144Z,51.63
2022-11-16T02:39:12.382Z,50.47
2022-11-16T02:41:42.641Z,52.53
2022-11-16T02:44:24.566Z,55.17
2022-11-16T02:46:56.978Z,50.97
2022-11-16T02:49:25.657Z,46.80
2022-11-16T02:51:54.380Z,52.93
2022-11-16T02:54:24.554Z,54.83
2022-11-16T02:57:03.207Z,51.23
2022-11-16T02:59:47.630Z,47.47
2022-11-16T03:02:20.132Z,55.73
2022-11-16T03:05:02.339Z,55.00
2022-11-16T03:07:34.931Z,49.23
2022-11-16T03:10:02.475Z,59.13
2022-11-16T03:12:35.071Z,63.70
2022-11-16T03:15:04.977Z,51.17
2022-11-16T03:17:38.524Z,53.03
2022-11-16T03:20:14.785Z,59.47
2022-11-16T03:22:42.663Z,56.00
2022-11-16T03:25:11.875Z,54.97
2022-11-16T03:28:13.741Z,53.17
2022-11-16T03:30:49.255Z,53.87
2022-11-16T03:33:31.063Z,50.07
2022-11-16T03:36:13.045Z,51.43
2022-11-16T03:38:45.566Z,54.53
2022-11-16T03:41:15.426Z,54.47
2022-11-16T03:43:43.794Z,53.67
2022-11-16T03:46:10.765Z,57.90
2022-11-16T03:48:39.905Z,53.27
2022-11-16T03:51:08.927Z,51.90
2022-11-16T03:53:35.837Z,53.47
2022-11-16T03:56:03.109Z,58.53
2022-11-16T03:58:30.075Z,61.33
2022-11-16T04:00:57.015Z,58.33
2022-11-16T04:03:23.822Z,60.40
2022-11-16T04:06:09.212Z,76.27
2022-11-16T04:08:54.664Z,64.20
2022-11-16T04:11:41.271Z,60.93
2022-11-16T04:14:32.275Z,64.83
2022-11-16T04:17:17.799Z,72.67
2022-11-16T04:20:03.389Z,65.90
2022-11-16T04:22:52.845Z,71.17
2022-11-16T04:25:24.581Z,62.40
2022-11-16T04:28:11.431Z,68.20
2022-11-16T04:30:57.012Z,75.70
2022-11-16T04:33:42.531Z,72.77
2022-11-16T04:36:28.038Z,69.10
2022-11-16T04:38:54.730Z,68.70
2022-11-16T04:41:40.257Z,61.60
2022-11-16T04:44:07.054Z,74.53
2022-11-16T04:46:52.256Z,71.20
2022-11-16T04:49:19.077Z,61.53
2022-11-16T04:51:45.812Z,58.17
2022-11-16T04:54:12.619Z,55.40
2022-11-16T04:56:39.294Z,49.90
2022-11-16T04:59:06.122Z,52.70
2022-11-16T05:01:51.413Z,43.33
2022-11-16T05:04:18.111Z,52.53
2022-11-16T05:06:44.838Z,41.00
2022-11-16T05:09:11.537Z,33.23
2022-11-16T05:11:38.250Z,32.10
2022-11-16T05:14:05.914Z,31.90
2022-11-16T05:16:33.687Z,31.83
2022-11-16T05:19:19.064Z,32.50
2022-11-16T05:21:45.945Z,26.93
2022-11-16T05:24:31.415Z,29.20
2022-11-16T05:26:58.085Z,25.30
2022-11-16T05:29:24.744Z,24.47
2022-11-16T05:31:51.481Z,27.67
2022-11-16T05:34:18.160Z,29.50
2022-11-16T05:36:44.830Z,29.70
2022-11-16T05:39:12.114Z,29.67
2022-11-16T05:41:38.830Z,27.33
2022-11-16T05:44:05.691Z,26.67
2022-11-16T05:46:32.453Z,25.47
2022-11-16T05:48:59.366Z,25.03
2022-11-16T05:51:26.202Z,22.03
2022-11-16T05:53:52.921Z,23.40
2022-11-16T05:56:19.837Z,23.80
2022-11-16T05:58:46.742Z,26.67
2022-11-16T06:01:13.458Z,22.10
2022-11-16T06:03:40.337Z,19.50
2022-11-16T06:06:07.415Z,21.37
2022-11-16T06:08:34.558Z,19.03
2022-11-16T06:11:03.175Z,17.97
2022-11-16T06:13:30.891Z,22.60
2022-11-16T06:15:58.022Z,21.67
2022-11-16T06:18:25.085Z,19.30
2022-11-16T06:20:51.795Z,19.17
2022-11-16T06:23:18.587Z,20.90
2022-11-16T06:25:45.811Z,20.13
2022-11-16T06:28:12.648Z,20.53
2022-11-16T06:30:40.635Z,19.50
2022-11-16T06:33:08.673Z,22.57
2022-11-16T06:35:35.389Z,16.57
2022-11-16T06:38:02.056Z,14.87
2022-11-16T06:40:28.747Z,13.67
2022-11-16T06:42:57.204Z,15.90
2022-11-16T06:45:24.070Z,17.30
2022-11-16T06:47:50.803Z,17.30
2022-11-16T06:50:19.287Z,20.60
2022-11-16T06:52:47.161Z,23.23
2022-11-16T06:55:14.259Z,22.67
2022-11-16T06:57:41.149Z,22.50
2022-11-16T07:00:08.857Z,26.87
2022-11-16T07:02:39.682Z,32.00
2022-11-16T07:05:07.450Z,30.70
2022-11-16T07:07:34.235Z,33.57
2022-11-16T07:10:02.548Z,26.93
2022-11-16T07:12:29.246Z,33.43
2022-11-16T07:14:55.956Z,33.27
2022-11-16T07:17:22.637Z,32.83
2022-11-16T07:19:49.464Z,41.47
2022-11-16T07:22:16.180Z,45.03
2022-11-16T07:24:42.874Z,46.10
2022-11-16T07:27:09.546Z,40.77
2022-11-16T07:29:36.211Z,46.77
2022-11-16T07:32:02.934Z,40.80
2022-11-16T07:34:29.619Z,43.67
2022-11-16T07:36:56.670Z,48.67
2022-11-16T07:39:23.372Z,47.80
2022-11-16T07:41:53.020Z,53.37
2022-11-16T07:44:20.331Z,50.40
2022-11-16T07:46:48.356Z,52.93
2022-11-16T07:49:17.040Z,53.97
2022-11-16T07:51:44.471Z,49.17
2022-11-16T07:54:15.335Z,55.00
2022-11-16T07:56:42.404Z,54.53
2022-11-16T07:59:09.188Z,48.33
2022-11-16T08:01:36.244Z,46.00
2022-11-16T08:04:03.243Z,55.93
2022-11-16T08:06:31.942Z,49.87
2022-11-16T08:08:59.559Z,50.87
2022-11-16T08:11:26.779Z,47.03
2022-11-16T08:13:53.524Z,42.33
2022-11-16T08:16:22.239Z,46.50
2022-11-16T08:18:49.561Z,39.77
2022-11-16T08:21:17.692Z,43.73
2022-11-16T08:23:47.726Z,34.53
2022-11-16T08:26:17.434Z,31.83
2022-11-16T08:28:45.889Z,33.30
2022-11-16T08:31:18.292Z,31.67
2022-11-16T08:33:45.546Z,29.93
2022-11-16T08:36:17.163Z,26.07
2022-11-16T08:38:45.548Z,21.00
2022-11-16T08:41:12.610Z,19.97
2022-11-16T08:43:40.530Z,21.00
2022-11-16T08:46:09.243Z,24.67
2022-11-16T08:48:37.429Z,22.07
2022-11-16T08:51:17.473Z,19.93
2022-11-16T08:53:45.145Z,24.93
2022-11-16T08:56:13.693Z,24.37
2022-11-16T08:58:43.625Z,23.87
2022-11-16T09:01:13.966Z,23.83
2022-11-16T09:03:41.832Z,24.57
2022-11-16T09:06:10.183Z,21.43
2022-11-16T09:08:38.778Z,16.57
2022-11-16T09:11:16.885Z,27.57
2022-11-16T09:13:45.428Z,24.00
2022-11-16T09:16:12.475Z,16.97
2022-11-16T09:18:39.238Z,23.77
2022-11-16T09:21:05.998Z,20.53
2022-11-16T09:23:32.694Z,22.50
2022-11-16T09:26:04.809Z,23.73
2022-11-16T09:28:31.985Z,23.87
2022-11-16T09:31:06.057Z,20.07
2022-11-16T09:33:34.205Z,19.70
2022-11-16T09:36:09.400Z,18.83
2022-11-16T09:39:13.933Z,21.53
2022-11-16T09:42:01.698Z,24.50
2022-11-16T09:44:56.512Z,21.93
2022-11-16T09:47:37.918Z,17.67
2022-11-16T09:50:06.623Z,18.30
2022-11-16T09:52:44.534Z,21.20
2022-11-16T09:55:36.969Z,18.90
2022-11-16T09:58:12.811Z,20.40
2022-11-16T10:00:44.931Z,23.87
2022-11-16T10:03:13.674Z,19.13
2022-11-16T10:06:02.733Z,25.20
2022-11-16T10:08:46.128Z,19.17
2022-11-16T10:11:38.597Z,21.60
2022-11-16T10:14:24.171Z,13.90
2022-11-16T10:16:57.391Z,22.43
2022-11-16T10:19:53.544Z,18.97
2022-11-16T10:22:36.017Z,21.73
2022-11-16T10:25:11.774Z,17.63
2022-11-16T10:27:59.358Z,13.50
2022-11-16T10:30:26.348Z,20.27
2022-11-16T10:32:55.066Z,20.17
2022-11-16T10:35:33.795Z,14.53
2022-11-16T10:38:03.879Z,14.73
2022-11-16T10:40:38.064Z,13.17
2022-11-16T10:43:10.328Z,16.40
2022-11-16T10:45:43.389Z,10.97
2022-11-16T10:48:31.421Z,14.30
2022-11-16T10:50:58.362Z,9.13
2022-11-16T10:53:28.108Z,13.93
2022-11-16T10:56:12.498Z,12.53
2022-11-16T10:58:58.666Z,13.07
2022-11-16T11:01:36.435Z,12.73
2022-11-16T11:04:22.938Z,14.43
2022-11-16T11:06:52.837Z,13.27
2022-11-16T11:09:32.725Z,25.47
2022-11-16T11:12:37.750Z,15.33
2022-11-16T11:15:27.499Z,12.77
2022-11-16T11:18:17.179Z,13.93
2022-11-16T11:20:52.277Z,7.57
2022-11-16T11:23:24.516Z,8.83
2022-11-16T11:25:53.943Z,11.90
2022-11-16T11:28:38.438Z,10.00
2022-11-16T11:31:11.647Z,11.43
2022-11-16T11:33:44.040Z,11.60
2022-11-16T11:36:19.546Z,8.03
2022-11-16T11:39:00.199Z,12.73
2022-11-16T11:41:33.364Z,10.47
2022-11-16T11:44:03.354Z,7.03
2022-11-16T11:47:18.198Z,8.27
2022-11-16T11:49:36.197Z,8.97
2022-11-16T11:52:17.276Z,12.37
2022-11-16T11:54:49.298Z,11.93
2022-11-16T11:57:23.049Z,10.77
2022-11-16T11:59:52.949Z,8.93
2022-11-16T12:02:48.273Z,12.10
2022-11-16T12:05:22.084Z,10.77
2022-11-16T12:08:07.664Z,9.93
2022-11-16T12:10:51.123Z,10.80
2022-11-16T12:13:51.047Z,8.43
2022-11-16T12:16:49.333Z,10.47
2022-11-16T12:19:37.509Z,11.47
2022-11-16T12:22:22.943Z,11.80
2022-11-16T12:24:52.631Z,10.50
2022-11-16T12:27:34.275Z,11.27
2022-11-16T12:30:11.875Z,10.23
2022-11-16T12:33:00.135Z,9.73
2022-11-16T12:35:41.572Z,7.83
2022-11-16T12:38:14.627Z,8.13
2022-11-16T12:41:15.124Z,5.90
2022-11-16T12:43:59.676Z,7.50
2022-11-16T12:46:57.072Z,9.23
2022-11-16T12:49:45.333Z,8.77
2022-11-16T12:52:51.870Z,10.50
2022-11-16T12:55:27.466Z,6.20
2022-11-16T12:58:00.843Z,6.87
2022-11-16T13:00:31.441Z,7.67
2022-11-16T13:03:33.694Z,7.20
2022-11-16T13:06:06.120Z,6.93
2022-11-16T13:08:53.217Z,7.87
2022-11-16T13:11:27.651Z,6.97
2022-11-16T13:14:02.473Z,8.80
2022-11-16T13:16:29.566Z,8.83
2022-11-16T13:18:58.067Z,12.43
2022-11-16T13:21:30.784Z,8.17
2022-11-16T13:24:17.273Z,9.37
2022-11-16T13:27:16.262Z,14.43
2022-11-16T13:30:12.592Z,11.20
2022-11-16T13:33:00.963Z,10.17
2022-11-16T13:35:28.028Z,5.30
2022-11-16T13:37:54.947Z,6.20
2022-11-16T13:40:27.627Z,6.37
2022-11-16T13:43:09.648Z,6.73
2022-11-16T13:45:48.480Z,7.30
2022-11-16T13:48:30.815Z,7.97
2022-11-16T13:51:00.460Z,10.20
2022-11-16T13:56:28.929Z,7.97
2022-11-16T13:58:58.320Z,6.00
2022-11-16T14:01:26.730Z,12.23
2022-11-16T14:04:31.787Z,6.90
2022-11-16T14:07:00.298Z,8.87
2022-11-16T14:09:48.138Z,11.57
2022-11-16T14:12:51.594Z,7.80
2022-11-16T14:15:27.367Z,8.73
2022-11-16T14:18:23.340Z,7.23
2022-11-16T14:20:59.276Z,5.13
2022-11-16T14:23:53.759Z,12.83
2022-11-16T14:26:34.016Z,9.03
2022-11-16T14:29:20.212Z,7.70
2022-11-16T14:31:57.031Z,7.47
2022-11-16T14:34:26.343Z,10.77
2022-11-16T14:36:53.657Z,8.80
2022-11-16T14:39:37.648Z,7.17
2022-11-16T14:42:15.408Z,9.53
2022-11-16T14:44:43.249Z,11.20
2022-11-16T14:47:27.630Z,10.63
2022-11-16T14:49:55.591Z,6.60
2022-11-16T14:52:45.171Z,4.77
2022-11-16T14:55:20.177Z,6.00
2022-11-16T14:57:47.287Z,6.30
2022-11-16T15:00:29.612Z,7.93
2022-11-16T15:03:02.375Z,6.83
2022-11-16T15:05:34.823Z,9.03
2022-11-16T15:08:03.604Z,11.33
2022-11-16T15:10:30.734Z,4.67
2022-11-16T15:12:58.197Z,6.53
2022-11-16T15:15:28.822Z,10.57
2022-11-16T15:18:11.428Z,6.63
2022-11-16T15:20:47.299Z,10.73
2022-11-16T15:23:15.243Z,6.83
2022-11-16T15:25:45.039Z,8.43
2022-11-16T15:28:29.668Z,7.77
2022-11-16T15:31:00.142Z,6.07
2022-11-16T15:33:39.226Z,8.17
2022-11-16T15:36:24.625Z,7.87
2022-11-16T15:38:58.788Z,5.47
2022-11-16T15:41:28.107Z,8.07
2022-11-16T15:44:15.621Z,7.40
2022-11-16T15:46:46.543Z,9.13
2022-11-16T15:49:30.492Z,9.73
2022-11-16T15:51:58.772Z,7.80
2022-11-16T15:54:51.488Z,14.33
2022-11-16T15:57:20.215Z,8.03
2022-11-16T15:59:50.585Z,10.73
2022-11-16T16:02:28.754Z,8.87
2022-11-16T16:04:55.634Z,6.97
2022-11-16T16:07:40.209Z,6.63
2022-11-16T16:10:22.069Z,5.53
2022-11-16T16:13:00.424Z,10.87
2022-11-16T16:15:40.168Z,10.77
2022-11-16T16:18:39.769Z,8.47
2022-11-16T16:21:06.656Z,5.77
2022-11-16T16:23:33.666Z,9.07
2022-11-16T16:26:03.987Z,10.40
2022-11-16T16:28:30.820Z,9.87
2022-11-16T16:30:57.638Z,11.37
2022-11-16T16:33:28.607Z,10.50
2022-11-16T16:35:55.535Z,12.50
2022-11-16T16:38:22.305Z,9.60
2022-11-16T16:40:49.052Z,11.93
2022-11-16T16:43:15.913Z,9.17
2022-11-16T16:45:43.920Z,12.63
2022-11-16T16:48:13.962Z,7.00
2022-11-16T16:50:40.975Z,8.87
2022-11-16T16:53:12.238Z,7.80
2022-11-16T16:55:39.367Z,8.73
2022-11-16T16:58:06.278Z,10.50
2022-11-16T17:00:33.755Z,8.20
2022-11-16T17:03:00.603Z,10.37
2022-11-16T17:05:27.446Z,9.85
2022-11-16T17:07:57.248Z,7.00
2022-11-16T17:10:24.330Z,9.60
2022-11-16T17:12:54.802Z,8.77
2022-11-16T17:15:22.088Z,10.07
2022-11-16T17:17:49.104Z,9.90
2022-11-16T17:20:16.512Z,7.20
2022-11-16T17:22:43.785Z,7.27
2022-11-16T17:25:10.723Z,4.87
2022-11-16T17:27:43.632Z,10.03
2022-11-16T17:30:13.647Z,6.57
2022-11-16T17:32:40.526Z,10.37
2022-11-16T17:35:07.603Z,12.63
2022-11-16T17:37:34.430Z,10.17
2022-11-16T17:40:01.205Z,9.13
2022-11-16T17:42:27.951Z,10.57
2022-11-16T17:44:55.252Z,11.47
2022-11-16T17:47:21.976Z,10.07
2022-11-16T17:49:48.740Z,7.57
2022-11-16T17:52:15.711Z,7.23
2022-11-16T17:54:42.555Z,15.57
2022-11-16T17:57:09.498Z,10.30
2022-11-16T17:59:36.326Z,13.17
2022-11-16T18:02:03.310Z,10.13
2022-11-16T18:04:30.117Z,15.60
2022-11-16T18:06:57.151Z,15.50
2022-11-16T18:09:24.230Z,11.90
2022-11-16T18:11:51.183Z,9.87
2022-11-16T18:14:17.975Z,12.30
2022-11-16T18:16:47.783Z,7.83
2022-11-16T18:19:17.110Z,10.80
2022-11-16T18:21:44.344Z,9.77
2022-11-16T18:24:11.914Z,8.40
2022-11-16T18:26:40.287Z,13.27
2022-11-16T18:29:12.320Z,11.13
2022-11-16T18:31:41.702Z,9.03
2022-11-16T18:34:08.573Z,10.50
2022-11-16T18:36:35.635Z,12.73
2022-11-16T18:39:02.426Z,10.80
2022-11-16T18:41:30.264Z,10.17
2022-11-16T18:43:59.350Z,9.57
2022-11-16T18:46:31.434Z,10.27
2022-11-16T18:49:00.059Z,15.10
2022-11-16T18:51:28.188Z,10.60
2022-11-16T18:53:56.030Z,12.00
2022-11-16T18:56:24.083Z,8.57
2022-11-16T18:58:52.642Z,8.73
2022-11-16T19:01:22.816Z,12.00
2022-11-16T19:03:51.147Z,11.77
2022-11-16T19:06:18.288Z,8.27
2022-11-16T19:08:50.472Z,7.07
2022-11-16T19:11:19.122Z,10.70
2022-11-16T19:13:46.018Z,10.10
2022-11-16T19:16:13.846Z,10.57
2022-11-16T19:18:41.018Z,7.87
2022-11-16T19:21:15.665Z,13.33
2022-11-16T19:23:46.965Z,7.00
2022-11-16T19:26:15.384Z,8.43
2022-11-16T19:28:47.227Z,11.33
2022-11-16T19:31:28.965Z,9.33
2022-11-16T19:33:59.588Z,7.80
2022-11-16T19:36:28.169Z,8.80
2022-11-16T19:38:55.659Z,8.93
2022-11-16T19:41:23.619Z,10.57
2022-11-16T19:43:52.800Z,8.43
2022-11-16T19:46:21.715Z,9.53
2022-11-16T19:48:49.583Z,8.80
2022-11-16T19:51:20.408Z,10.73
2022-11-16T19:53:47.658Z,6.73
2022-11-16T19:56:16.548Z,9.83
2022-11-16T19:58:43.808Z,7.50
2022-11-16T20:01:12.687Z,10.07
2022-11-16T20:03:42.726Z,8.73
2022-11-16T20:06:24.101Z,9.23
2022-11-16T20:08:56.056Z,8.33
2022-11-16T20:11:24.877Z,7.13
2022-11-16T20:13:53.692Z,11.27
2022-11-16T20:16:22.885Z,17.00
2022-11-16T20:18:50.730Z,9.03
2022-11-16T20:21:28.918Z,6.43
2022-11-16T20:24:01.512Z,7.90
2022-11-16T20:26:37.359Z,7.70
2022-11-16T20:29:05.125Z,8.20
2022-11-16T20:31:41.548Z,8.63
2022-11-16T20:34:14.091Z,8.60
2022-11-16T20:36:52.768Z,7.70
2022-11-16T20:39:24.038Z,4.57
2022-11-16T20:41:50.902Z,5.00
2022-11-16T20:44:21.129Z,7.23
2022-11-16T20:46:48.979Z,8.33
2022-11-16T20:49:15.777Z,9.43
2022-11-16T20:51:42.567Z,5.10
2022-11-16T20:54:09.267Z,9.37
2022-11-16T20:56:36.044Z,7.80
2022-11-16T20:59:02.798Z,6.97
2022-11-16T21:01:31.830Z,9.17
2022-11-16T21:04:04.159Z,5.97
2022-11-16T21:06:34.838Z,12.03
2022-11-16T21:09:01.939Z,8.00
2022-11-16T21:11:30.714Z,6.80
2022-11-16T21:14:15.990Z,8.30
2022-11-16T21:16:42.818Z,6.63
2022-11-16T21:19:10.373Z,4.80
2022-11-16T21:21:38.576Z,11.03
2022-11-16T21:24:05.539Z,7.67
2022-11-16T21:26:33.258Z,6.47
2022-11-16T21:29:01.223Z,8.00
2022-11-16T21:31:31.212Z,6.83
2022-11-16T21:34:00.495Z,8.57
2022-11-16T21:36:29.114Z,6.63
2022-11-16T21:38:56.044Z,6.23
2022-11-16T21:41:24.490Z,6.60
2022-11-16T21:43:51.418Z,8.60
2022-11-16T21:46:25.076Z,13.33
2022-11-16T21:48:52.887Z,6.57
2022-11-16T21:51:21.651Z,7.13
2022-11-16T21:53:48.880Z,8.23
2022-11-16T21:56:18.778Z,8.10
2022-11-16T21:58:45.914Z,7.60
2022-11-16T22:01:15.930Z,6.53
2022-11-16T22:03:43.256Z,7.37
2022-11-16T22:06:32.322Z,6.20
2022-11-16T22:08:59.826Z,5.50
2022-11-16T22:11:26.848Z,6.57
2022-11-16T22:13:53.495Z,6.43
2022-11-16T22:16:23.348Z,7.43
2022-11-16T22:18:50.460Z,7.47
2022-11-16T22:21:17.522Z,5.80
2022-11-16T22:23:44.416Z,6.17
2022-11-16T22:26:13.396Z,7.07
2022-11-16T22:28:40.482Z,5.63
2022-11-16T22:31:12.478Z,8.13
2022-11-16T22:33:39.728Z,8.57
2022-11-16T22:36:09.341Z,8.50
2022-11-16T22:38:37.488Z,6.13
2022-11-16T22:41:04.390Z,5.90
2022-11-16T22:43:32.579Z,5.40
2022-11-16T22:46:04.655Z,6.50
2022-11-16T22:48:41.174Z,6.00
2022-11-16T22:51:18.154Z,8.30
2022-11-16T22:53:44.962Z,8.40
2022-11-16T22:56:11.972Z,8.83
2022-11-16T22:58:39.778Z,6.93
2022-11-16T23:01:08.106Z,11.37
2022-11-16T23:03:36.085Z,8.17
2022-11-16T23:06:04.074Z,9.80
2022-11-16T23:08:30.966Z,7.23
2022-11-16T23:11:24.041Z,10.87
2022-11-16T23:14:10.538Z,9.93
2022-11-16T23:16:38.716Z,7.33
2022-11-16T23:19:29.052Z,6.80
2022-11-16T23:22:14.943Z,7.07
2022-11-16T23:25:00.427Z,7.70
2022-11-16T23:27:52.043Z,8.00
2022-11-16T23:30:18.935Z,11.73
2022-11-16T23:32:45.840Z,7.53
2022-11-16T23:35:13.130Z,6.70
2022-11-16T23:38:00.008Z,7.53
2022-11-16T23:40:35.194Z,10.60
2022-11-16T23:43:23.560Z,8.40
2022-11-16T23:45:50.816Z,7.50
2022-11-16T23:48:18.581Z,9.57
2022-11-16T23:50:45.922Z,6.83
2022-11-16T23:53:13.077Z,9.87
2022-11-16T23:55:40.771Z,8.40
2022-11-16T23:58:13.940Z,8.93
